Aeroporto :
LOGIN :

Iscrizione | Disclaimer

   EN    FR    IT 

 










Sommario :    VFR   VFR Marginale   IFR   IFR Intensivo   IFR Molto Intensivo
Visibilità : 
Base nubi : 
>= 8 km
>= 3000ft
5 / 8 km
1000 / 3000 ft
1500m / 5 km
500 / 1000 ft
800 / 1500m
200 / 500 ft
< 800m
< 200 ft
Simboli :   Temporali  Nebbia  Neve Forte  Precipitazioni Forti  Vento > 20 kt
SIGMETs :   Varie  Temporali  Ghiacco  Turbolenza  Onda orograficha  Ceneri Vulcaniche






- Altitudine del aeroporto : 939 ft


LKKB - Kbely Air Base

ULTIMO METAR :
  • 151300Z 13006KT 9999 FEW032 SCT070 BKN240 11/06 Q1003 NOSIG

METARs OBSOLETI :
  • 151200Z 11011KT 9999 SCT027 BKN070 11/06 Q1003 NOSIG
  • 151100Z 10008KT 9999 FEW020 SCT025 BKN070 11/06 Q1003 NOSIG

TAF TAF LKKB
Valido dal 15 a 12 ore il 16 a 12 ore UTC


151100Z 1512/1612 08010KT 9999 SCT025
TEMPO 1512/1518 11012G24KT SCT030
BECMG 1518/1520 13010KT
BECMG 1522/1600 18012KT BKN025
TEMPO 1600/1606 6000 RA SCT015 OVC025



MetMap, La meteo Aeronautica in un colpo d'occhio ! - Copyright ORBIFLY Dicembre 2007 - Disclaimer

ORBIFLY MET'MAP TEAM :

Programmazione e sviluppo : Alexandra Zaïnal
Concezione e sviluppo : Baudouin d'Aumeries
Co-Programmazione e sviluppo : Marc-Olivier Méhu
Supporto tecnico e logistico : Manuel Goepfert
Aiuto per la traduzione : Arnaldo La Scala

Contatto : metmap@orbifly.com




FONTI E CREDITI :

   NOAA